sensor_id;sensor_type;location;lat;lon;timestamp;temperature;humidity
63899;HTU21D;50070;-32.946;-60.652;2023-04-29T00:00:07;23.92;55.15
63899;HTU21D;50070;-32.946;-60.652;2023-04-29T00:02:34;23.79;55.68
63899;HTU21D;50070;-32.946;-60.652;2023-04-29T00:05:01;23.71;55.91
63899;HTU21D;50070;-32.946;-60.652;2023-04-29T00:07:31;23.84;55.70
63899;HTU21D;50070;-32.946;-60.652;2023-04-29T00:09:58;23.89;55.68
63899;HTU21D;50070;-32.946;-60.652;2023-04-29T00:12:25;23.80;56.23
63899;HTU21D;50070;-32.946;-60.652;2023-04-29T00:14:53;23.75;56.48
63899;HTU21D;50070;-32.946;-60.652;2023-04-29T00:17:20;23.67;56.65
63899;HTU21D;50070;-32.946;-60.652;2023-04-29T00:19:46;23.73;56.87
63899;HTU21D;50070;-32.946;-60.652;2023-04-29T00:22:13;23.80;56.68
63899;HTU21D;50070;-32.946;-60.652;2023-04-29T00:24:40;23.92;56.42
63899;HTU21D;50070;-32.946;-60.652;2023-04-29T00:27:07;23.83;56.81
63899;HTU21D;50070;-32.946;-60.652;2023-04-29T00:29:34;23.58;57.78
63899;HTU21D;50070;-32.946;-60.652;2023-04-29T00:32:01;23.67;57.79
63899;HTU21D;50070;-32.946;-60.652;2023-04-29T00:34:28;23.47;58.83
63899;HTU21D;50070;-32.946;-60.652;2023-04-29T00:36:55;23.56;58.58
63899;HTU21D;50070;-32.946;-60.652;2023-04-29T00:39:22;23.58;58.78
63899;HTU21D;50070;-32.946;-60.652;2023-04-29T00:41:48;23.30;59.81
63899;HTU21D;50070;-32.946;-60.652;2023-04-29T00:44:15;23.52;59.20
63899;HTU21D;50070;-32.946;-60.652;2023-04-29T00:46:42;23.28;59.96
63899;HTU21D;50070;-32.946;-60.652;2023-04-29T00:49:10;23.39;59.85
63899;HTU21D;50070;-32.946;-60.652;2023-04-29T00:51:40;23.34;60.18
63899;HTU21D;50070;-32.946;-60.652;2023-04-29T00:54:07;23.20;60.78
63899;HTU21D;50070;-32.946;-60.652;2023-04-29T00:56:35;23.11;61.12
63899;HTU21D;50070;-32.946;-60.652;2023-04-29T00:59:03;23.15;61.12
63899;HTU21D;50070;-32.946;-60.652;2023-04-29T01:01:30;23.26;60.81
63899;HTU21D;50070;-32.946;-60.652;2023-04-29T01:03:57;22.95;62.46
63899;HTU21D;50070;-32.946;-60.652;2023-04-29T01:06:56;23.02;62.01
63899;HTU21D;50070;-32.946;-60.652;2023-04-29T01:14:42;23.14;61.83
63899;HTU21D;50070;-32.946;-60.652;2023-04-29T01:17:17;22.98;62.70
63899;HTU21D;50070;-32.946;-60.652;2023-04-29T01:19:49;22.94;62.98
63899;HTU21D;50070;-32.946;-60.652;2023-04-29T01:22:16;22.87;63.34
63899;HTU21D;50070;-32.946;-60.652;2023-04-29T01:24:47;22.94;63.13
63899;HTU21D;50070;-32.946;-60.652;2023-04-29T01:27:38;22.77;64.01
63899;HTU21D;50070;-32.946;-60.652;2023-04-29T01:33:17;22.97;63.50
63899;HTU21D;50070;-32.946;-60.652;2023-04-29T01:38:56;23.00;63.51
63899;HTU21D;50070;-32.946;-60.652;2023-04-29T01:41:29;22.86;64.13
63899;HTU21D;50070;-32.946;-60.652;2023-04-29T01:43:57;22.80;64.18
63899;HTU21D;50070;-32.946;-60.652;2023-04-29T01:46:25;22.82;64.16
63899;HTU21D;50070;-32.946;-60.652;2023-04-29T01:48:53;22.95;63.80
63899;HTU21D;50070;-32.946;-60.652;2023-04-29T01:51:20;22.94;63.92
63899;HTU21D;50070;-32.946;-60.652;2023-04-29T01:53:47;22.68;64.93
63899;HTU21D;50070;-32.946;-60.652;2023-04-29T01:56:14;22.76;64.51
63899;HTU21D;50070;-32.946;-60.652;2023-04-29T01:58:41;22.95;64.16
63899;HTU21D;50070;-32.946;-60.652;2023-04-29T02:01:07;22.90;64.34
63899;HTU21D;50070;-32.946;-60.652;2023-04-29T02:03:35;22.96;64.23
63899;HTU21D;50070;-32.946;-60.652;2023-04-29T02:06:02;23.00;63.91
63899;HTU21D;50070;-32.946;-60.652;2023-04-29T02:08:29;23.05;64.07
63899;HTU21D;50070;-32.946;-60.652;2023-04-29T02:10:57;22.92;64.74
63899;HTU21D;50070;-32.946;-60.652;2023-04-29T02:13:25;22.77;65.50
63899;HTU21D;50070;-32.946;-60.652;2023-04-29T02:15:52;22.85;65.08
63899;HTU21D;50070;-32.946;-60.652;2023-04-29T02:18:18;22.82;65.44
63899;HTU21D;50070;-32.946;-60.652;2023-04-29T02:20:45;22.81;65.30
63899;HTU21D;50070;-32.946;-60.652;2023-04-29T02:23:12;22.69;66.00
63899;HTU21D;50070;-32.946;-60.652;2023-04-29T02:25:39;22.78;65.72
63899;HTU21D;50070;-32.946;-60.652;2023-04-29T02:28:06;22.83;65.38
63899;HTU21D;50070;-32.946;-60.652;2023-04-29T02:30:32;22.68;66.01
63899;HTU21D;50070;-32.946;-60.652;2023-04-29T02:32:59;22.61;66.35
63899;HTU21D;50070;-32.946;-60.652;2023-04-29T02:35:26;22.75;65.93
63899;HTU21D;50070;-32.946;-60.652;2023-04-29T02:37:52;22.65;66.40
63899;HTU21D;50070;-32.946;-60.652;2023-04-29T02:40:19;22.55;66.70
63899;HTU21D;50070;-32.946;-60.652;2023-04-29T02:42:46;22.49;67.16
63899;HTU21D;50070;-32.946;-60.652;2023-04-29T02:45:13;22.62;66.71
63899;HTU21D;50070;-32.946;-60.652;2023-04-29T02:47:40;22.54;67.04
63899;HTU21D;50070;-32.946;-60.652;2023-04-29T02:50:06;22.47;67.39
63899;HTU21D;50070;-32.946;-60.652;2023-04-29T02:52:33;22.62;66.71
63899;HTU21D;50070;-32.946;-60.652;2023-04-29T02:55:00;22.53;67.36
63899;HTU21D;50070;-32.946;-60.652;2023-04-29T02:57:27;22.49;67.70
63899;HTU21D;50070;-32.946;-60.652;2023-04-29T02:59:54;22.39;68.11
63899;HTU21D;50070;-32.946;-60.652;2023-04-29T03:02:22;22.52;67.59
63899;HTU21D;50070;-32.946;-60.652;2023-04-29T03:04:49;22.40;68.26
63899;HTU21D;50070;-32.946;-60.652;2023-04-29T03:07:16;22.55;67.62
63899;HTU21D;50070;-32.946;-60.652;2023-04-29T03:09:43;22.46;68.12
63899;HTU21D;50070;-32.946;-60.652;2023-04-29T03:12:09;22.51;68.03
63899;HTU21D;50070;-32.946;-60.652;2023-04-29T03:14:36;22.35;68.42
63899;HTU21D;50070;-32.946;-60.652;2023-04-29T03:17:03;22.52;68.02
63899;HTU21D;50070;-32.946;-60.652;2023-04-29T03:19:30;22.42;68.19
63899;HTU21D;50070;-32.946;-60.652;2023-04-29T03:21:57;22.36;68.83
63899;HTU21D;50070;-32.946;-60.652;2023-04-29T03:24:23;22.27;68.92
63899;HTU21D;50070;-32.946;-60.652;2023-04-29T03:26:50;22.13;69.62
63899;HTU21D;50070;-32.946;-60.652;2023-04-29T03:29:17;22.06;70.07
63899;HTU21D;50070;-32.946;-60.652;2023-04-29T03:31:44;22.37;68.88
63899;HTU21D;50070;-32.946;-60.652;2023-04-29T03:34:10;22.03;70.32
63899;HTU21D;50070;-32.946;-60.652;2023-04-29T03:36:39;22.16;69.62
63899;HTU21D;50070;-32.946;-60.652;2023-04-29T03:39:06;22.11;69.87
63899;HTU21D;50070;-32.946;-60.652;2023-04-29T03:41:33;22.02;70.60
63899;HTU21D;50070;-32.946;-60.652;2023-04-29T03:43:59;22.04;70.27
63899;HTU21D;50070;-32.946;-60.652;2023-04-29T03:46:27;22.10;70.10
63899;HTU21D;50070;-32.946;-60.652;2023-04-29T03:48:53;22.17;69.92
63899;HTU21D;50070;-32.946;-60.652;2023-04-29T03:51:25;22.06;70.33
63899;HTU21D;50070;-32.946;-60.652;2023-04-29T03:53:53;22.03;70.42
63899;HTU21D;50070;-32.946;-60.652;2023-04-29T03:56:24;22.02;70.61
63899;HTU21D;50070;-32.946;-60.652;2023-04-29T03:58:52;21.99;70.68
63899;HTU21D;50070;-32.946;-60.652;2023-04-29T04:01:18;21.96;70.89
63899;HTU21D;50070;-32.946;-60.652;2023-04-29T04:03:45;21.78;71.53
63899;HTU21D;50070;-32.946;-60.652;2023-04-29T04:06:12;21.76;71.95
63899;HTU21D;50070;-32.946;-60.652;2023-04-29T04:08:40;21.78;71.87
63899;HTU21D;50070;-32.946;-60.652;2023-04-29T04:11:06;21.45;73.33
63899;HTU21D;50070;-32.946;-60.652;2023-04-29T04:13:34;21.43;73.64
63899;HTU21D;50070;-32.946;-60.652;2023-04-29T04:16:01;21.36;74.06
63899;HTU21D;50070;-32.946;-60.652;2023-04-29T04:18:28;21.51;73.53
63899;HTU21D;50070;-32.946;-60.652;2023-04-29T04:20:55;21.59;72.99
63899;HTU21D;50070;-32.946;-60.652;2023-04-29T04:23:22;21.44;73.96
63899;HTU21D;50070;-32.946;-60.652;2023-04-29T04:25:49;21.53;73.40
63899;HTU21D;50070;-32.946;-60.652;2023-04-29T04:28:16;21.51;73.51
63899;HTU21D;50070;-32.946;-60.652;2023-04-29T04:30:42;21.42;74.06
63899;HTU21D;50070;-32.946;-60.652;2023-04-29T04:33:11;21.65;73.12
63899;HTU21D;50070;-32.946;-60.652;2023-04-29T04:35:38;21.44;73.71
63899;HTU21D;50070;-32.946;-60.652;2023-04-29T04:38:05;21.64;72.98
63899;HTU21D;50070;-32.946;-60.652;2023-04-29T04:40:32;21.47;73.80
63899;HTU21D;50070;-32.946;-60.652;2023-04-29T04:42:59;21.37;74.05
63899;HTU21D;50070;-32.946;-60.652;2023-04-29T04:45:27;21.46;73.87
63899;HTU21D;50070;-32.946;-60.652;2023-04-29T04:47:57;21.51;73.53
63899;HTU21D;50070;-32.946;-60.652;2023-04-29T04:50:26;21.75;72.76
63899;HTU21D;50070;-32.946;-60.652;2023-04-29T04:52:57;21.54;73.50
63899;HTU21D;50070;-32.946;-60.652;2023-04-29T04:55:24;21.65;73.25
63899;HTU21D;50070;-32.946;-60.652;2023-04-29T04:57:51;21.60;73.34
63899;HTU21D;50070;-32.946;-60.652;2023-04-29T05:00:18;21.63;73.24
63899;HTU21D;50070;-32.946;-60.652;2023-04-29T05:02:44;21.74;72.79
63899;HTU21D;50070;-32.946;-60.652;2023-04-29T05:05:11;21.78;72.67
63899;HTU21D;50070;-32.946;-60.652;2023-04-29T05:07:38;21.66;73.09
63899;HTU21D;50070;-32.946;-60.652;2023-04-29T05:10:05;21.62;73.30
63899;HTU21D;50070;-32.946;-60.652;2023-04-29T05:12:33;21.68;73.15
63899;HTU21D;50070;-32.946;-60.652;2023-04-29T05:15:00;21.78;72.74
63899;HTU21D;50070;-32.946;-60.652;2023-04-29T05:17:27;21.57;73.80
63899;HTU21D;50070;-32.946;-60.652;2023-04-29T05:19:54;21.61;73.83
63899;HTU21D;50070;-32.946;-60.652;2023-04-29T05:22:21;21.78;72.98
63899;HTU21D;50070;-32.946;-60.652;2023-04-29T05:24:47;21.81;73.06
63899;HTU21D;50070;-32.946;-60.652;2023-04-29T05:27:14;21.84;72.87
63899;HTU21D;50070;-32.946;-60.652;2023-04-29T05:29:41;21.83;72.89
63899;HTU21D;50070;-32.946;-60.652;2023-04-29T05:32:08;21.74;73.32
63899;HTU21D;50070;-32.946;-60.652;2023-04-29T05:34:35;21.83;73.15
63899;HTU21D;50070;-32.946;-60.652;2023-04-29T05:37:02;21.85;73.11
63899;HTU21D;50070;-32.946;-60.652;2023-04-29T05:39:29;21.84;73.25
63899;HTU21D;50070;-32.946;-60.652;2023-04-29T05:41:55;21.66;74.09
63899;HTU21D;50070;-32.946;-60.652;2023-04-29T05:44:24;21.73;73.96
63899;HTU21D;50070;-32.946;-60.652;2023-04-29T05:46:50;21.79;73.81
63899;HTU21D;50070;-32.946;-60.652;2023-04-29T05:49:17;21.58;74.57
63899;HTU21D;50070;-32.946;-60.652;2023-04-29T05:51:44;21.64;74.44
63899;HTU21D;50070;-32.946;-60.652;2023-04-29T05:54:11;21.37;75.70
63899;HTU21D;50070;-32.946;-60.652;2023-04-29T05:56:37;21.27;76.37
63899;HTU21D;50070;-32.946;-60.652;2023-04-29T05:59:04;21.28;76.29
63899;HTU21D;50070;-32.946;-60.652;2023-04-29T06:01:31;21.31;76.15
63899;HTU21D;50070;-32.946;-60.652;2023-04-29T06:03:58;21.34;76.00
63899;HTU21D;50070;-32.946;-60.652;2023-04-29T06:06:24;21.37;76.02
63899;HTU21D;50070;-32.946;-60.652;2023-04-29T06:08:51;21.30;76.55
63899;HTU21D;50070;-32.946;-60.652;2023-04-29T06:11:18;21.40;75.84
63899;HTU21D;50070;-32.946;-60.652;2023-04-29T06:13:45;21.29;76.54
63899;HTU21D;50070;-32.946;-60.652;2023-04-29T06:16:12;21.39;76.15
63899;HTU21D;50070;-32.946;-60.652;2023-04-29T06:18:38;21.34;76.44
63899;HTU21D;50070;-32.946;-60.652;2023-04-29T06:21:06;21.30;76.60
63899;HTU21D;50070;-32.946;-60.652;2023-04-29T06:23:33;21.20;77.25
63899;HTU21D;50070;-32.946;-60.652;2023-04-29T06:26:00;21.28;76.99
63899;HTU21D;50070;-32.946;-60.652;2023-04-29T06:28:26;21.08;77.94
63899;HTU21D;50070;-32.946;-60.652;2023-04-29T06:30:54;21.13;77.63
63899;HTU21D;50070;-32.946;-60.652;2023-04-29T06:33:21;21.31;76.76
63899;HTU21D;50070;-32.946;-60.652;2023-04-29T06:35:48;21.07;77.77
63899;HTU21D;50070;-32.946;-60.652;2023-04-29T06:38:15;21.09;77.82
63899;HTU21D;50070;-32.946;-60.652;2023-04-29T06:40:42;21.14;77.59
63899;HTU21D;50070;-32.946;-60.652;2023-04-29T06:43:11;21.20;77.44
63899;HTU21D;50070;-32.946;-60.652;2023-04-29T06:45:38;21.06;77.98
63899;HTU21D;50070;-32.946;-60.652;2023-04-29T06:48:05;20.98;78.45
63899;HTU21D;50070;-32.946;-60.652;2023-04-29T06:50:31;21.06;78.19
63899;HTU21D;50070;-32.946;-60.652;2023-04-29T06:52:58;21.09;78.08
63899;HTU21D;50070;-32.946;-60.652;2023-04-29T06:55:25;20.92;78.72
63899;HTU21D;50070;-32.946;-60.652;2023-04-29T06:57:52;20.96;78.34
63899;HTU21D;50070;-32.946;-60.652;2023-04-29T07:00:19;21.10;77.90
63899;HTU21D;50070;-32.946;-60.652;2023-04-29T07:02:47;21.08;77.79
63899;HTU21D;50070;-32.946;-60.652;2023-04-29T07:05:13;21.07;77.91
63899;HTU21D;50070;-32.946;-60.652;2023-04-29T07:07:40;21.08;77.98
63899;HTU21D;50070;-32.946;-60.652;2023-04-29T07:10:07;21.05;78.09
63899;HTU21D;50070;-32.946;-60.652;2023-04-29T07:12:34;21.16;77.57
63899;HTU21D;50070;-32.946;-60.652;2023-04-29T07:15:01;21.02;78.33
63899;HTU21D;50070;-32.946;-60.652;2023-04-29T07:17:31;20.91;78.69
63899;HTU21D;50070;-32.946;-60.652;2023-04-29T07:19:58;21.09;77.93
63899;HTU21D;50070;-32.946;-60.652;2023-04-29T07:22:25;21.06;78.03
63899;HTU21D;50070;-32.946;-60.652;2023-04-29T07:24:55;21.05;78.16
63899;HTU21D;50070;-32.946;-60.652;2023-04-29T07:27:22;20.83;79.00
63899;HTU21D;50070;-32.946;-60.652;2023-04-29T07:29:49;20.81;79.19
63899;HTU21D;50070;-32.946;-60.652;2023-04-29T07:32:16;20.81;79.12
63899;HTU21D;50070;-32.946;-60.652;2023-04-29T07:34:43;20.80;78.97
63899;HTU21D;50070;-32.946;-60.652;2023-04-29T07:37:10;20.80;79.24
63899;HTU21D;50070;-32.946;-60.652;2023-04-29T07:39:36;20.69;79.79
63899;HTU21D;50070;-32.946;-60.652;2023-04-29T07:42:03;20.79;79.34
63899;HTU21D;50070;-32.946;-60.652;2023-04-29T07:44:30;20.75;79.62
63899;HTU21D;50070;-32.946;-60.652;2023-04-29T07:46:57;20.63;80.47
63899;HTU21D;50070;-32.946;-60.652;2023-04-29T07:49:23;20.77;79.52
63899;HTU21D;50070;-32.946;-60.652;2023-04-29T07:51:51;20.61;80.25
63899;HTU21D;50070;-32.946;-60.652;2023-04-29T07:54:17;20.72;79.99
63899;HTU21D;50070;-32.946;-60.652;2023-04-29T07:56:48;20.59;80.55
63899;HTU21D;50070;-32.946;-60.652;2023-04-29T07:59:15;20.50;81.01
63899;HTU21D;50070;-32.946;-60.652;2023-04-29T08:01:42;20.60;80.39
63899;HTU21D;50070;-32.946;-60.652;2023-04-29T08:04:09;20.49;81.14
63899;HTU21D;50070;-32.946;-60.652;2023-04-29T08:06:36;20.48;81.22
63899;HTU21D;50070;-32.946;-60.652;2023-04-29T08:09:02;20.55;80.62
63899;HTU21D;50070;-32.946;-60.652;2023-04-29T08:11:29;20.49;80.78
63899;HTU21D;50070;-32.946;-60.652;2023-04-29T08:13:56;20.36;81.39
63899;HTU21D;50070;-32.946;-60.652;2023-04-29T08:16:25;20.56;80.65
63899;HTU21D;50070;-32.946;-60.652;2023-04-29T08:18:52;20.77;79.48
63899;HTU21D;50070;-32.946;-60.652;2023-04-29T08:21:19;20.70;79.67
63899;HTU21D;50070;-32.946;-60.652;2023-04-29T08:23:48;20.77;79.48
63899;HTU21D;50070;-32.946;-60.652;2023-04-29T08:26:15;20.68;79.72
63899;HTU21D;50070;-32.946;-60.652;2023-04-29T08:28:41;20.56;79.98
63899;HTU21D;50070;-32.946;-60.652;2023-04-29T08:31:18;20.61;79.65
63899;HTU21D;50070;-32.946;-60.652;2023-04-29T08:33:45;20.55;79.62
63899;HTU21D;50070;-32.946;-60.652;2023-04-29T08:36:12;20.43;80.06
63899;HTU21D;50070;-32.946;-60.652;2023-04-29T08:38:39;20.34;80.41
63899;HTU21D;50070;-32.946;-60.652;2023-04-29T08:41:09;20.60;79.69
63899;HTU21D;50070;-32.946;-60.652;2023-04-29T08:43:37;20.73;78.69
63899;HTU21D;50070;-32.946;-60.652;2023-04-29T08:46:05;20.44;79.78
63899;HTU21D;50070;-32.946;-60.652;2023-04-29T08:48:33;20.50;79.54
63899;HTU21D;50070;-32.946;-60.652;2023-04-29T08:51:02;20.44;79.54
63899;HTU21D;50070;-32.946;-60.652;2023-04-29T08:53:29;20.44;79.80
63899;HTU21D;50070;-32.946;-60.652;2023-04-29T08:55:59;20.41;79.70
63899;HTU21D;50070;-32.946;-60.652;2023-04-29T08:58:30;20.35;79.78
63899;HTU21D;50070;-32.946;-60.652;2023-04-29T09:00:58;20.54;78.98
63899;HTU21D;50070;-32.946;-60.652;2023-04-29T09:03:51;20.45;79.25
63899;HTU21D;50070;-32.946;-60.652;2023-04-29T09:06:20;20.48;79.33
63899;HTU21D;50070;-32.946;-60.652;2023-04-29T09:08:48;20.60;78.58
63899;HTU21D;50070;-32.946;-60.652;2023-04-29T09:11:15;20.48;79.16
63899;HTU21D;50070;-32.946;-60.652;2023-04-29T09:13:42;20.50;79.17
63899;HTU21D;50070;-32.946;-60.652;2023-04-29T09:16:12;20.71;78.18
63899;HTU21D;50070;-32.946;-60.652;2023-04-29T09:18:49;20.71;78.05
63899;HTU21D;50070;-32.946;-60.652;2023-04-29T09:21:29;20.58;78.63
63899;HTU21D;50070;-32.946;-60.652;2023-04-29T09:24:00;20.41;79.47
63899;HTU21D;50070;-32.946;-60.652;2023-04-29T09:26:51;20.59;78.47
63899;HTU21D;50070;-32.946;-60.652;2023-04-29T09:29:17;20.51;78.80
63899;HTU21D;50070;-32.946;-60.652;2023-04-29T09:31:45;20.63;78.41
63899;HTU21D;50070;-32.946;-60.652;2023-04-29T09:34:12;20.48;79.01
63899;HTU21D;50070;-32.946;-60.652;2023-04-29T09:36:48;20.31;80.12
63899;HTU21D;50070;-32.946;-60.652;2023-04-29T09:39:20;20.43;79.60
63899;HTU21D;50070;-32.946;-60.652;2023-04-29T09:44:25;20.55;79.23
63899;HTU21D;50070;-32.946;-60.652;2023-04-29T09:46:57;20.37;80.12
63899;HTU21D;50070;-32.946;-60.652;2023-04-29T09:49:27;20.28;80.49
63899;HTU21D;50070;-32.946;-60.652;2023-04-29T09:51:59;20.32;80.01
63899;HTU21D;50070;-32.946;-60.652;2023-04-29T09:54:27;20.32;80.08
63899;HTU21D;50070;-32.946;-60.652;2023-04-29T09:56:56;20.44;79.98
63899;HTU21D;50070;-32.946;-60.652;2023-04-29T09:59:23;20.40;80.19
63899;HTU21D;50070;-32.946;-60.652;2023-04-29T10:01:52;20.29;80.83
63899;HTU21D;50070;-32.946;-60.652;2023-04-29T10:04:21;20.18;81.08
63899;HTU21D;50070;-32.946;-60.652;2023-04-29T10:06:50;20.20;81.29
63899;HTU21D;50070;-32.946;-60.652;2023-04-29T10:09:18;20.33;80.80
63899;HTU21D;50070;-32.946;-60.652;2023-04-29T10:11:48;20.28;80.80
63899;HTU21D;50070;-32.946;-60.652;2023-04-29T10:14:17;20.35;80.30
63899;HTU21D;50070;-32.946;-60.652;2023-04-29T10:16:49;20.47;80.00
63899;HTU21D;50070;-32.946;-60.652;2023-04-29T10:19:25;20.39;80.56
63899;HTU21D;50070;-32.946;-60.652;2023-04-29T10:21:58;20.29;81.11
63899;HTU21D;50070;-32.946;-60.652;2023-04-29T10:24:26;20.28;80.93
63899;HTU21D;50070;-32.946;-60.652;2023-04-29T10:26:53;20.09;81.67
63899;HTU21D;50070;-32.946;-60.652;2023-04-29T10:29:22;20.13;81.67
63899;HTU21D;50070;-32.946;-60.652;2023-04-29T10:31:51;20.17;81.45
63899;HTU21D;50070;-32.946;-60.652;2023-04-29T10:34:19;20.21;81.12
63899;HTU21D;50070;-32.946;-60.652;2023-04-29T10:36:46;20.19;81.38
63899;HTU21D;50070;-32.946;-60.652;2023-04-29T10:39:30;20.12;81.52
63899;HTU21D;50070;-32.946;-60.652;2023-04-29T10:42:03;20.22;80.94
63899;HTU21D;50070;-32.946;-60.652;2023-04-29T10:44:31;20.12;81.33
63899;HTU21D;50070;-32.946;-60.652;2023-04-29T10:47:19;20.24;80.65
63899;HTU21D;50070;-32.946;-60.652;2023-04-29T10:50:15;20.28;80.30
63899;HTU21D;50070;-32.946;-60.652;2023-04-29T10:52:51;20.27;80.40
63899;HTU21D;50070;-32.946;-60.652;2023-04-29T10:55:17;20.24;80.40
63899;HTU21D;50070;-32.946;-60.652;2023-04-29T10:57:44;20.35;79.91
63899;HTU21D;50070;-32.946;-60.652;2023-04-29T11:00:32;20.29;80.32
63899;HTU21D;50070;-32.946;-60.652;2023-04-29T11:03:05;20.27;80.45
63899;HTU21D;50070;-32.946;-60.652;2023-04-29T11:05:34;20.26;80.49
63899;HTU21D;50070;-32.946;-60.652;2023-04-29T11:08:14;20.13;80.88
63899;HTU21D;50070;-32.946;-60.652;2023-04-29T11:10:52;20.07;81.03
63899;HTU21D;50070;-32.946;-60.652;2023-04-29T11:13:30;20.24;80.43
63899;HTU21D;50070;-32.946;-60.652;2023-04-29T11:16:09;20.17;80.65
63899;HTU21D;50070;-32.946;-60.652;2023-04-29T11:19:08;20.39;79.95
63899;HTU21D;50070;-32.946;-60.652;2023-04-29T11:21:36;20.35;79.98
63899;HTU21D;50070;-32.946;-60.652;2023-04-29T11:24:06;20.29;80.42
63899;HTU21D;50070;-32.946;-60.652;2023-04-29T11:26:35;20.48;79.23
63899;HTU21D;50070;-32.946;-60.652;2023-04-29T11:29:04;20.50;79.13
63899;HTU21D;50070;-32.946;-60.652;2023-04-29T11:31:32;20.20;80.52
63899;HTU21D;50070;-32.946;-60.652;2023-04-29T11:33:59;20.19;80.85
63899;HTU21D;50070;-32.946;-60.652;2023-04-29T11:36:26;20.25;80.37
63899;HTU21D;50070;-32.946;-60.652;2023-04-29T11:38:53;20.22;80.43
63899;HTU21D;50070;-32.946;-60.652;2023-04-29T11:41:20;20.05;81.23
63899;HTU21D;50070;-32.946;-60.652;2023-04-29T11:43:58;20.17;80.75
63899;HTU21D;50070;-32.946;-60.652;2023-04-29T11:46:29;20.26;80.56
63899;HTU21D;50070;-32.946;-60.652;2023-04-29T11:48:57;20.26;80.43
63899;HTU21D;50070;-32.946;-60.652;2023-04-29T11:51:27;20.41;79.89
63899;HTU21D;50070;-32.946;-60.652;2023-04-29T11:53:55;20.49;79.46
63899;HTU21D;50070;-32.946;-60.652;2023-04-29T11:56:23;20.44;79.21
63899;HTU21D;50070;-32.946;-60.652;2023-04-29T11:58:56;20.36;79.53
63899;HTU21D;50070;-32.946;-60.652;2023-04-29T12:01:24;20.47;79.15
63899;HTU21D;50070;-32.946;-60.652;2023-04-29T12:03:56;20.68;78.36
63899;HTU21D;50070;-32.946;-60.652;2023-04-29T12:06:28;20.55;78.88
63899;HTU21D;50070;-32.946;-60.652;2023-04-29T12:08:58;20.62;78.77
63899;HTU21D;50070;-32.946;-60.652;2023-04-29T12:11:26;20.68;78.59
63899;HTU21D;50070;-32.946;-60.652;2023-04-29T12:13:53;20.77;78.22
63899;HTU21D;50070;-32.946;-60.652;2023-04-29T12:16:20;20.64;78.53
63899;HTU21D;50070;-32.946;-60.652;2023-04-29T12:18:50;20.58;79.01
63899;HTU21D;50070;-32.946;-60.652;2023-04-29T12:21:17;20.70;78.59
63899;HTU21D;50070;-32.946;-60.652;2023-04-29T12:23:45;20.70;78.55
63899;HTU21D;50070;-32.946;-60.652;2023-04-29T12:26:13;20.77;78.40
63899;HTU21D;50070;-32.946;-60.652;2023-04-29T12:28:40;20.69;78.75
63899;HTU21D;50070;-32.946;-60.652;2023-04-29T12:31:08;20.72;78.47
63899;HTU21D;50070;-32.946;-60.652;2023-04-29T12:33:36;20.77;78.39
63899;HTU21D;50070;-32.946;-60.652;2023-04-29T12:36:03;20.81;78.47
63899;HTU21D;50070;-32.946;-60.652;2023-04-29T12:38:30;20.83;78.15
63899;HTU21D;50070;-32.946;-60.652;2023-04-29T12:41:01;20.93;77.96
63899;HTU21D;50070;-32.946;-60.652;2023-04-29T12:43:29;20.96;78.27
63899;HTU21D;50070;-32.946;-60.652;2023-04-29T12:46:03;20.92;78.32
63899;HTU21D;50070;-32.946;-60.652;2023-04-29T12:48:37;20.86;78.50
63899;HTU21D;50070;-32.946;-60.652;2023-04-29T12:51:08;20.90;78.21
63899;HTU21D;50070;-32.946;-60.652;2023-04-29T12:53:36;21.07;77.69
63899;HTU21D;50070;-32.946;-60.652;2023-04-29T12:56:05;21.01;78.08
63899;HTU21D;50070;-32.946;-60.652;2023-04-29T12:58:33;21.17;77.67
63899;HTU21D;50070;-32.946;-60.652;2023-04-29T13:01:02;21.10;78.35
63899;HTU21D;50070;-32.946;-60.652;2023-04-29T13:03:29;21.02;78.26
63899;HTU21D;50070;-32.946;-60.652;2023-04-29T13:05:56;21.19;77.82
63899;HTU21D;50070;-32.946;-60.652;2023-04-29T13:08:24;21.45;76.54
63899;HTU21D;50070;-32.946;-60.652;2023-04-29T13:10:50;21.48;76.64
63899;HTU21D;50070;-32.946;-60.652;2023-04-29T13:13:18;21.70;75.46
63899;HTU21D;50070;-32.946;-60.652;2023-04-29T13:15:46;21.62;76.01
63899;HTU21D;50070;-32.946;-60.652;2023-04-29T13:18:13;21.38;76.80
63899;HTU21D;50070;-32.946;-60.652;2023-04-29T13:20:40;21.57;76.36
63899;HTU21D;50070;-32.946;-60.652;2023-04-29T13:23:06;21.58;76.18
63899;HTU21D;50070;-32.946;-60.652;2023-04-29T13:25:33;21.76;75.99
63899;HTU21D;50070;-32.946;-60.652;2023-04-29T13:28:00;21.70;75.97
63899;HTU21D;50070;-32.946;-60.652;2023-04-29T13:30:27;21.62;76.05
63899;HTU21D;50070;-32.946;-60.652;2023-04-29T13:32:53;21.77;75.35
63899;HTU21D;50070;-32.946;-60.652;2023-04-29T13:35:20;21.78;75.37
63899;HTU21D;50070;-32.946;-60.652;2023-04-29T13:37:47;22.04;74.34
63899;HTU21D;50070;-32.946;-60.652;2023-04-29T13:40:14;22.17;74.15
63899;HTU21D;50070;-32.946;-60.652;2023-04-29T13:42:41;22.23;73.72
63899;HTU21D;50070;-32.946;-60.652;2023-04-29T13:45:08;22.27;73.93
63899;HTU21D;50070;-32.946;-60.652;2023-04-29T13:47:36;22.41;73.30
63899;HTU21D;50070;-32.946;-60.652;2023-04-29T13:50:02;22.34;73.81
63899;HTU21D;50070;-32.946;-60.652;2023-04-29T13:52:29;22.36;73.56
63899;HTU21D;50070;-32.946;-60.652;2023-04-29T13:54:56;22.42;73.21
63899;HTU21D;50070;-32.946;-60.652;2023-04-29T13:57:23;22.50;73.09
63899;HTU21D;50070;-32.946;-60.652;2023-04-29T13:59:52;22.70;72.06
63899;HTU21D;50070;-32.946;-60.652;2023-04-29T14:02:21;22.90;71.38
63899;HTU21D;50070;-32.946;-60.652;2023-04-29T14:04:48;22.92;71.11
63899;HTU21D;50070;-32.946;-60.652;2023-04-29T14:07:14;22.92;71.36
63899;HTU21D;50070;-32.946;-60.652;2023-04-29T14:09:41;23.03;70.34
63899;HTU21D;50070;-32.946;-60.652;2023-04-29T14:12:08;23.17;69.91
63899;HTU21D;50070;-32.946;-60.652;2023-04-29T14:14:35;23.17;69.63
63899;HTU21D;50070;-32.946;-60.652;2023-04-29T14:17:02;23.20;69.87
63899;HTU21D;50070;-32.946;-60.652;2023-04-29T14:19:29;23.24;69.78
63899;HTU21D;50070;-32.946;-60.652;2023-04-29T14:21:56;23.28;69.90
63899;HTU21D;50070;-32.946;-60.652;2023-04-29T14:24:23;23.32;69.97
63899;HTU21D;50070;-32.946;-60.652;2023-04-29T14:26:49;23.44;69.87
63899;HTU21D;50070;-32.946;-60.652;2023-04-29T14:29:18;23.67;68.20
63899;HTU21D;50070;-32.946;-60.652;2023-04-29T14:31:45;23.67;68.49
63899;HTU21D;50070;-32.946;-60.652;2023-04-29T14:34:11;23.61;68.85
63899;HTU21D;50070;-32.946;-60.652;2023-04-29T14:36:38;23.74;68.19
63899;HTU21D;50070;-32.946;-60.652;2023-04-29T14:39:06;23.86;68.09
63899;HTU21D;50070;-32.946;-60.652;2023-04-29T14:41:33;24.05;67.86
63899;HTU21D;50070;-32.946;-60.652;2023-04-29T14:44:00;24.30;66.73
63899;HTU21D;50070;-32.946;-60.652;2023-04-29T14:46:26;24.16;66.99
63899;HTU21D;50070;-32.946;-60.652;2023-04-29T14:48:54;24.43;66.82
63899;HTU21D;50070;-32.946;-60.652;2023-04-29T14:51:21;24.51;66.14
63899;HTU21D;50070;-32.946;-60.652;2023-04-29T14:53:48;24.62;65.30
63899;HTU21D;50070;-32.946;-60.652;2023-04-29T14:56:17;24.42;65.92